Time;durP1;ratioP1;P1;durP2;ratioP2;P2;SDS_P1;SDS_P2;PMS_P1;PMS_P2;Temp;Humidity;BMP_temperature;BMP_pressure;BME280_temperature;BME280_humidity;BME280_pressure;Samples;Min_cycle;Max_cycle;Signal;HPM_P1;HPM_P2
2021/09/15 00:00:04;;;;;;;17.33;10.73;;;18.90;94.50;;;;;;5034928;28;20021;-71
2021/09/15 00:02:30;;;;;;;19.00;10.65;;;18.90;94.40;;;;;;5034502;28;20025;-72
2021/09/15 00:04:56;;;;;;;14.38;9.80;;;18.90;94.50;;;;;;5034913;28;20041;-72
2021/09/15 00:07:24;;;;;;;15.90;10.32;;;18.90;94.70;;;;;;5052797;28;20068;-72
2021/09/15 00:09:50;;;;;;;19.00;9.85;;;18.90;94.90;;;;;;5052761;28;20474;-71
2021/09/15 00:12:16;;;;;;;14.07;8.13;;;18.90;94.50;;;;;;5052721;28;20037;-72
2021/09/15 00:14:42;;;;;;;16.88;8.90;;;18.90;94.20;;;;;;5052712;28;20031;-72
2021/09/15 00:17:07;;;;;;;15.13;9.02;;;18.90;94.10;;;;;;5034768;28;20033;-72
2021/09/15 00:19:33;;;;;;;13.85;9.98;;;18.80;94.10;;;;;;5054600;28;20021;-70
2021/09/15 00:21:59;;;;;;;15.55;9.98;;;18.80;94.00;;;;;;5038687;28;20051;-71
2021/09/15 00:24:25;;;;;;;19.35;9.98;;;18.80;94.00;;;;;;5056644;28;20040;-71
2021/09/15 00:26:51;;;;;;;15.32;9.88;;;18.80;94.00;;;;;;5038710;28;20374;-72
2021/09/15 00:29:17;;;;;;;18.63;10.57;;;18.80;94.40;;;;;;5056240;28;20025;-73
2021/09/15 00:31:42;;;;;;;17.52;11.82;;;18.70;94.60;;;;;;5038285;28;20021;-72
2021/09/15 00:34:08;;;;;;;20.73;12.65;;;18.70;95.00;;;;;;5038523;28;20044;-71
2021/09/15 00:36:34;;;;;;;20.50;12.10;;;18.70;95.10;;;;;;5056484;28;20489;-71
2021/09/15 00:39:00;;;;;;;17.42;11.27;;;18.60;95.60;;;;;;5056616;28;20028;-72
2021/09/15 00:41:26;;;;;;;21.27;12.35;;;18.60;95.80;;;;;;5038420;28;20120;-70
2021/09/15 00:43:57;;;;;;;25.00;14.90;;;18.40;96.60;;;;;;5056238;28;20029;-71
2021/09/15 00:46:23;;;;;;;28.40;14.80;;;18.40;97.20;;;;;;5056279;28;20115;-71
2021/09/15 00:48:49;;;;;;;17.23;11.98;;;18.30;97.70;;;;;;5038241;28;20033;-71
2021/09/15 00:51:15;;;;;;;21.98;12.00;;;18.40;97.60;;;;;;5055941;28;20025;-71
2021/09/15 00:53:42;;;;;;;19.65;11.77;;;18.40;97.20;;;;;;5056066;28;20029;-72
2021/09/15 00:56:08;;;;;;;22.67;12.32;;;18.40;97.50;;;;;;5056114;28;20025;-72
2021/09/15 00:58:34;;;;;;;20.67;11.02;;;18.30;97.60;;;;;;5055999;28;20032;-72
2021/09/15 01:01:00;;;;;;;15.52;9.88;;;18.30;97.90;;;;;;5037742;28;20036;-70
2021/09/15 01:03:25;;;;;;;21.25;11.95;;;18.20;97.70;;;;;;5055837;28;20041;-70
2021/09/15 01:05:51;;;;;;;21.85;12.20;;;18.10;97.70;;;;;;5056169;28;20060;-71
2021/09/15 01:08:18;;;;;;;24.48;13.85;;;18.10;98.20;;;;;;5055767;28;20017;-72
2021/09/15 01:10:44;;;;;;;17.58;12.95;;;18.00;98.50;;;;;;5055610;28;20033;-72
2021/09/15 01:13:11;;;;;;;25.65;14.20;;;18.00;99.20;;;;;;5055797;28;20519;-72
2021/09/15 01:15:38;;;;;;;24.83;13.30;;;18.00;99.20;;;;;;5055922;28;20025;-73
2021/09/15 01:18:18;;;;;;;25.73;14.75;;;18.00;99.40;;;;;;5037660;28;20469;-69
2021/09/15 01:20:44;;;;;;;22.95;15.18;;;18.00;99.70;;;;;;5055635;28;20033;-71
2021/09/15 01:23:15;;;;;;;25.40;14.40;;;17.80;99.90;;;;;;5037553;28;20462;-70
2021/09/15 01:25:41;;;;;;;23.42;12.68;;;17.70;99.90;;;;;;5055343;28;20021;-70
2021/09/15 01:28:08;;;;;;;20.65;12.43;;;17.70;99.90;;;;;;5055780;28;20041;-71
2021/09/15 01:30:34;;;;;;;26.88;13.88;;;17.70;99.90;;;;;;5036867;28;20029;-71
2021/09/15 01:33:00;;;;;;;17.63;12.60;;;17.70;99.90;;;;;;5037374;28;20405;-71
2021/09/15 01:35:26;;;;;;;31.38;12.63;;;17.80;99.90;;;;;;5037422;28;20055;-70
2021/09/15 01:37:52;;;;;;;22.08;12.82;;;17.90;99.90;;;;;;5055577;28;20029;-72
2021/09/15 01:40:18;;;;;;;24.10;12.73;;;17.90;99.90;;;;;;5037343;28;20036;-70
2021/09/15 01:42:43;;;;;;;22.92;13.25;;;17.90;99.90;;;;;;5055153;28;20461;-71
2021/09/15 01:45:12;;;;;;;23.20;14.10;;;17.90;99.90;;;;;;5055422;28;20033;-72
2021/09/15 01:47:40;;;;;;;22.80;13.75;;;17.90;99.90;;;;;;5037206;28;20029;-70
2021/09/15 01:50:07;;;;;;;26.80;14.23;;;17.90;99.90;;;;;;5055068;28;20462;-71
2021/09/15 01:52:33;;;;;;;24.40;15.25;;;17.90;99.90;;;;;;5055026;28;20025;-72
2021/09/15 01:55:00;;;;;;;27.90;14.35;;;17.90;99.90;;;;;;5037066;28;20358;-70
2021/09/15 01:57:26;;;;;;;25.42;13.73;;;17.80;99.90;;;;;;5054891;28;20037;-71
2021/09/15 01:59:52;;;;;;;22.20;13.57;;;17.70;99.90;;;;;;5055156;28;20029;-70
2021/09/15 02:02:18;;;;;;;22.38;13.48;;;17.70;99.90;;;;;;5054540;28;20037;-69
2021/09/15 02:04:43;;;;;;;23.67;14.18;;;17.60;99.90;;;;;;5054770;28;20044;-70
2021/09/15 02:07:10;;;;;;;21.85;14.05;;;17.70;99.90;;;;;;5054954;28;20025;-70
2021/09/15 02:09:36;;;;;;;26.58;13.90;;;17.70;99.90;;;;;;5054662;28;20033;-70
2021/09/15 02:12:02;;;;;;;21.63;13.52;;;17.70;99.90;;;;;;5036786;28;20036;-70
2021/09/15 02:14:28;;;;;;;21.85;13.90;;;17.70;99.90;;;;;;5036710;28;20025;-71
2021/09/15 02:16:54;;;;;;;21.65;13.73;;;17.70;99.90;;;;;;5054577;28;20025;-71
2021/09/15 02:19:20;;;;;;;21.70;12.40;;;17.70;99.90;;;;;;5054461;28;20500;-71
2021/09/15 02:21:46;;;;;;;20.92;11.60;;;17.70;99.90;;;;;;5036639;28;20037;-72
2021/09/15 02:24:12;;;;;;;26.88;12.32;;;17.70;99.90;;;;;;5036329;28;20036;-71
2021/09/15 02:26:38;;;;;;;26.05;12.93;;;17.60;99.90;;;;;;5054388;28;20025;-72
2021/09/15 02:29:05;;;;;;;24.15;12.98;;;18.20;99.90;;;;;;5054305;28;20564;-71
2021/09/15 02:31:31;;;;;;;26.75;12.75;;;17.50;99.90;;;;;;5054053;28;20025;-71
2021/09/15 02:33:57;;;;;;;20.38;13.18;;;17.80;99.90;;;;;;5054255;28;20104;-71
2021/09/15 02:36:24;;;;;;;18.40;11.98;;;17.70;99.90;;;;;;5054407;28;20104;-71
2021/09/15 02:38:50;;;;;;;21.15;12.75;;;17.70;99.90;;;;;;5053889;28;20388;-70
2021/09/15 02:41:16;;;;;;;19.75;12.10;;;17.60;99.90;;;;;;5053389;28;20094;-70
2021/09/15 02:43:42;;;;;;;23.58;13.00;;;17.70;99.90;;;;;;5035897;28;20462;-71
2021/09/15 02:46:08;;;;;;;25.02;13.07;;;18.70;99.90;;;;;;5053980;28;20118;-70
2021/09/15 02:48:34;;;;;;;18.52;13.27;;;17.40;99.90;;;;;;5053961;28;20060;-71
2021/09/15 02:51:00;;;;;;;18.10;13.25;;;17.60;99.90;;;;;;5054165;28;20021;-71
2021/09/15 02:53:26;;;;;;;19.00;13.00;;;17.70;99.90;;;;;;5053883;28;20033;-70
2021/09/15 02:55:52;;;;;;;26.00;12.82;;;17.60;99.90;;;;;;5054062;28;20036;-72
2021/09/15 02:58:18;;;;;;;24.80;13.70;;;17.70;99.90;;;;;;5035545;28;20025;-70
2021/09/15 03:00:43;;;;;;;19.67;13.32;;;17.60;99.90;;;;;;5053681;28;20091;-70
2021/09/15 03:03:09;;;;;;;19.50;12.90;;;17.60;99.90;;;;;;5053527;28;20039;-70
2021/09/15 03:05:36;;;;;;;28.48;14.18;;;17.60;99.90;;;;;;5053318;28;20037;-70
2021/09/15 03:08:02;;;;;;;25.25;13.52;;;17.40;99.90;;;;;;5053624;28;20510;-70
2021/09/15 03:10:28;;;;;;;22.88;13.40;;;17.30;99.90;;;;;;5053506;28;20063;-71
2021/09/15 03:12:54;;;;;;;21.48;12.52;;;17.30;99.90;;;;;;5053820;28;20466;-71
2021/09/15 03:15:21;;;;;;;25.65;13.02;;;17.30;99.90;;;;;;5035581;28;20036;-74
2021/09/15 03:17:55;;;;;;;25.83;13.32;;;17.40;99.90;;;;;;5053384;28;20040;-71
2021/09/15 03:20:21;;;;;;;25.02;12.55;;;17.40;99.90;;;;;;5035489;28;20025;-72
2021/09/15 03:22:47;;;;;;;25.80;13.70;;;17.40;99.90;;;;;;5035452;28;20028;-71
2021/09/15 03:25:13;;;;;;;28.75;14.80;;;17.30;99.90;;;;;;5035383;28;20028;-71
2021/09/15 03:27:39;;;;;;;32.10;14.55;;;17.20;99.90;;;;;;5035355;28;20469;-72
2021/09/15 03:30:06;;;;;;;28.67;13.93;;;17.20;99.90;;;;;;5035287;28;20103;-71
2021/09/15 03:32:32;;;;;;;25.50;14.00;;;17.10;99.90;;;;;;5053085;28;20107;-72
2021/09/15 03:35:03;;;;;;;26.70;14.38;;;17.10;99.90;;;;;;5035235;28;20024;-71
2021/09/15 03:37:29;;;;;;;25.70;13.38;;;17.10;99.90;;;;;;5053213;28;20025;-71
2021/09/15 03:39:55;;;;;;;28.02;13.98;;;17.10;99.90;;;;;;5035195;28;20511;-71
2021/09/15 03:42:21;;;;;;;32.15;15.00;;;17.10;99.90;;;;;;5053024;28;20029;-72
2021/09/15 03:44:47;;;;;;;34.65;16.42;;;17.10;99.90;;;;;;5052786;28;20124;-72
2021/09/15 03:47:13;;;;;;;26.67;14.80;;;17.00;99.90;;;;;;5053012;28;20033;-71
2021/09/15 03:49:38;;;;;;;31.13;17.33;;;16.90;99.90;;;;;;5035058;28;20115;-72
2021/09/15 03:52:07;;;;;;;25.75;16.67;;;;;;;;;;5052970;28;20100;-71
2021/09/15 03:54:34;;;;;;;29.58;16.55;;;16.80;99.90;;;;;;5052680;28;20071;-71
2021/09/15 03:57:00;;;;;;;26.52;13.95;;;16.70;99.90;;;;;;5052883;28;20032;-73
2021/09/15 03:59:26;;;;;;;30.52;13.65;;;16.80;99.90;;;;;;5034970;28;20423;-74
2021/09/15 04:01:52;;;;;;;24.60;15.00;;;16.80;99.90;;;;;;5035000;28;20035;-73
2021/09/15 04:04:18;;;;;;;23.45;15.60;;;16.80;99.90;;;;;;5052503;28;20029;-71
2021/09/15 04:06:44;;;;;;;29.30;17.20;;;16.90;99.90;;;;;;5034913;28;20473;-72
2021/09/15 04:09:09;;;;;;;20.38;14.45;;;16.80;99.90;;;;;;5052785;28;20117;-73
2021/09/15 04:11:35;;;;;;;20.63;15.15;;;16.70;99.90;;;;;;5034858;28;20029;-73
2021/09/15 04:14:01;;;;;;;33.72;15.57;;;16.70;99.90;;;;;;5052804;28;20548;-71
2021/09/15 04:16:27;;;;;;;26.05;14.32;;;16.70;99.90;;;;;;5034836;28;20025;-70
2021/09/15 04:18:53;;;;;;;22.35;15.27;;;16.80;99.90;;;;;;5052421;28;20047;-71
2021/09/15 04:21:19;;;;;;;26.83;14.18;;;16.80;99.90;;;;;;5052939;28;20028;-72
2021/09/15 04:31:58;;;;;;;26.98;15.40;;;16.80;99.90;;;;;;5052381;28;20047;-71
2021/09/15 04:34:24;;;;;;;28.73;15.43;;;16.80;99.90;;;;;;5052497;28;20025;-72
2021/09/15 04:36:50;;;;;;;32.00;14.40;;;16.80;99.90;;;;;;5052531;28;20029;-69
2021/09/15 04:39:16;;;;;;;29.83;15.10;;;16.80;99.90;;;;;;5052580;28;20082;-68
2021/09/15 04:41:42;;;;;;;26.92;15.90;;;16.80;99.90;;;;;;5052519;28;20389;-70
2021/09/15 04:44:07;;;;;;;21.45;15.35;;;16.80;99.90;;;;;;5052441;28;20037;-70
2021/09/15 04:46:33;;;;;;;26.80;15.35;;;16.80;99.90;;;;;;5052407;28;20033;-69
2021/09/15 04:48:59;;;;;;;27.67;14.57;;;16.80;99.90;;;;;;5052397;28;20021;-69
2021/09/15 04:51:25;;;;;;;22.45;15.02;;;16.90;99.90;;;;;;5052642;28;20027;-70
2021/09/15 04:53:51;;;;;;;26.77;14.95;;;17.00;99.90;;;;;;5052440;28;20390;-70
2021/09/15 04:56:17;;;;;;;30.23;15.70;;;17.00;99.90;;;;;;5052320;28;20476;-70
2021/09/15 04:58:42;;;;;;;24.55;14.82;;;17.00;99.90;;;;;;5052101;28;20037;-70
2021/09/15 05:01:08;;;;;;;24.45;15.07;;;17.00;99.90;;;;;;5052308;28;20033;-70
2021/09/15 05:03:37;;;;;;;30.10;15.27;;;17.10;99.90;;;;;;5051952;28;20100;-69
2021/09/15 05:06:03;;;;;;;32.67;15.98;;;17.00;99.90;;;;;;5054729;28;20115;-69
2021/09/15 05:08:29;;;;;;;29.30;14.48;;;16.90;99.90;;;;;;5055808;28;20461;-69
2021/09/15 05:10:55;;;;;;;23.60;14.63;;;17.00;99.90;;;;;;5037790;28;20048;-65
2021/09/15 05:13:20;;;;;;;26.05;15.02;;;17.10;99.90;;;;;;5055515;28;20032;-69
2021/09/15 05:15:46;;;;;;;26.55;15.30;;;17.10;99.90;;;;;;5037712;28;20033;-69
2021/09/15 05:18:12;;;;;;;33.00;14.38;;;17.20;99.90;;;;;;5037714;28;20061;-68
2021/09/15 05:20:38;;;;;;;29.90;14.82;;;17.20;99.90;;;;;;5037611;28;20111;-66
2021/09/15 05:23:04;;;;;;;30.52;14.88;;;17.30;99.90;;;;;;5055836;28;20103;-71
2021/09/15 05:25:30;;;;;;;31.20;15.40;;;17.40;99.90;;;;;;5055523;28;20094;-69
2021/09/15 05:27:56;;;;;;;31.90;16.20;;;17.40;99.90;;;;;;5055411;28;20072;-66
2021/09/15 05:30:22;;;;;;;32.03;16.63;;;17.50;99.90;;;;;;5055272;28;20053;-70
2021/09/15 05:32:48;;;;;;;37.30;15.82;;;17.50;99.90;;;;;;5054751;28;20060;-67
2021/09/15 05:35:14;;;;;;;32.63;15.40;;;17.60;99.90;;;;;;5055021;28;20029;-69
2021/09/15 05:37:40;;;;;;;38.08;17.08;;;17.60;99.90;;;;;;5055151;28;20052;-72
2021/09/15 05:40:07;;;;;;;31.42;16.85;;;17.70;99.90;;;;;;5037151;28;20029;-68
2021/09/15 05:42:33;;;;;;;30.38;17.80;;;17.70;99.90;;;;;;5055096;28;20057;-70
2021/09/15 05:45:02;;;;;;;33.05;17.60;;;;;;;;;;5037057;28;20033;-67
2021/09/15 05:47:29;;;;;;;29.60;17.48;;;17.70;99.90;;;;;;5054778;28;20013;-67
2021/09/15 05:49:56;;;;;;;28.27;16.73;;;17.90;99.90;;;;;;5036942;28;20029;-67
2021/09/15 05:52:22;;;;;;;42.70;17.60;;;18.00;99.90;;;;;;5054892;28;20044;-67
2021/09/15 05:54:48;;;;;;;33.78;17.67;;;18.00;99.90;;;;;;5054927;28;20583;-69
2021/09/15 05:57:14;;;;;;;46.58;18.63;;;18.10;99.90;;;;;;5036881;28;20037;-69
2021/09/15 05:59:40;;;;;;;42.65;19.27;;;18.10;99.90;;;;;;5054548;28;20025;-69
2021/09/15 06:02:06;;;;;;;34.22;18.75;;;18.30;99.90;;;;;;5054695;28;20052;-69
2021/09/15 06:04:32;;;;;;;34.40;18.58;;;18.30;99.90;;;;;;5054330;28;20385;-69
2021/09/15 06:06:58;;;;;;;38.90;18.45;;;18.30;99.90;;;;;;5036555;28;20033;-68
2021/09/15 06:09:23;;;;;;;41.92;19.45;;;18.40;99.90;;;;;;5054780;28;20067;-70
2021/09/15 06:11:49;;;;;;;44.60;20.30;;;18.60;99.90;;;;;;5054518;28;20039;-68
2021/09/15 06:14:15;;;;;;;72.05;22.52;;;18.70;99.90;;;;;;5054608;28;20033;-69
2021/09/15 06:16:41;;;;;;;257.98;37.78;;;18.70;99.90;;;;;;5036365;28;20043;-69
2021/09/15 06:19:07;;;;;;;36.85;22.40;;;18.80;99.90;;;;;;5036464;28;20021;-69
2021/09/15 06:21:32;;;;;;;42.22;21.58;;;18.80;99.90;;;;;;5054201;28;20419;-69
2021/09/15 06:23:58;;;;;;;35.20;20.15;;;18.90;99.90;;;;;;5054027;28;20033;-68
2021/09/15 06:26:25;;;;;;;32.17;20.02;;;;;;;;;;5054219;28;20033;-71
2021/09/15 06:28:55;;;;;;;31.27;18.48;;;;;;;;;;5054264;28;20021;-71
2021/09/15 06:31:25;;;;;;;36.53;19.95;;;;;;;;;;5054286;28;20021;-70
2021/09/15 06:33:52;;;;;;;35.38;19.90;;;19.30;99.90;;;;;;5054380;28;20083;-70
2021/09/15 06:36:19;;;;;;;30.67;19.58;;;;;;;;;;5036237;28;20025;-70
2021/09/15 06:38:45;;;;;;;28.85;19.50;;;19.40;99.90;;;;;;5036157;28;20090;-72
2021/09/15 06:41:11;;;;;;;31.02;19.30;;;19.70;99.90;;;;;;5054167;28;20739;-69
2021/09/15 06:43:38;;;;;;;33.72;20.02;;;;;;;;;;5036130;28;20028;-72
2021/09/15 06:46:04;;;;;;;33.72;20.15;;;;;;;;;;5036029;28;20021;-70
2021/09/15 06:48:30;;;;;;;32.75;18.92;;;19.80;99.90;;;;;;5053943;28;20017;-71
2021/09/15 06:50:56;;;;;;;31.70;19.30;;;19.90;99.90;;;;;;5035794;28;20378;-71
2021/09/15 06:53:22;;;;;;;43.55;20.20;;;20.00;99.90;;;;;;5034891;28;20089;-70
2021/09/15 06:55:48;;;;;;;31.95;19.75;;;20.10;99.90;;;;;;5035812;28;20476;-70
2021/09/15 06:58:14;;;;;;;35.15;20.83;;;20.00;97.90;;;;;;5053708;28;20096;-70
2021/09/15 07:00:40;;;;;;;35.17;21.45;;;;;;;;;;5035714;28;20025;-72
2021/09/15 07:03:06;;;;;;;45.10;21.27;;;20.30;99.90;;;;;;5035547;28;20029;-70
2021/09/15 07:05:32;;;;;;;35.67;20.00;;;20.40;99.90;;;;;;5053654;28;20029;-70
2021/09/15 07:07:58;;;;;;;42.30;20.65;;;;;;;;;;5052517;28;20357;-71
2021/09/15 07:10:24;;;;;;;54.63;20.83;;;;;;;;;;5033499;28;20017;-71
2021/09/15 07:12:51;;;;;;;37.70;19.42;;;;;;;;;;5033544;28;20033;-69
2021/09/15 07:15:17;;;;;;;31.23;18.15;;;21.00;99.90;;;;;;5033473;28;20048;-70
2021/09/15 07:17:44;;;;;;;34.65;18.65;;;21.10;99.90;;;;;;5033429;28;20076;-69
2021/09/15 07:20:13;;;;;;;42.08;19.55;;;;;;;;;;5033340;28;20461;-71
2021/09/15 07:22:39;;;;;;;32.30;20.85;;;;;;;;;;5015385;28;20083;-73
2021/09/15 07:25:06;;;;;;;28.50;19.20;;;21.70;99.90;;;;;;5015309;28;20029;-70
2021/09/15 07:27:32;;;;;;;44.80;20.67;;;21.60;93.60;;;;;;5032693;28;20025;-71
2021/09/15 07:29:58;;;;;;;43.95;19.92;;;21.80;91.20;;;;;;5033305;28;20021;-71
2021/09/15 07:32:24;;;;;;;36.83;21.83;;;22.00;96.90;;;;;;5015050;28;20104;-70
2021/09/15 07:34:50;;;;;;;35.90;17.02;;;21.60;98.00;;;;;;5033207;28;20033;-71
2021/09/15 07:37:17;;;;;;;39.65;19.60;;;22.30;94.00;;;;;;5015272;28;20116;-67
2021/09/15 07:39:43;;;;;;;30.80;20.73;;;22.50;99.90;;;;;;5032912;28;20075;-66
2021/09/15 07:42:09;;;;;;;30.42;20.15;;;;;;;;;;5032799;28;20025;-66
2021/09/15 07:44:36;;;;;;;38.58;19.60;;;22.80;99.90;;;;;;5033065;28;20037;-69
2021/09/15 07:47:03;;;;;;;27.63;18.15;;;23.00;99.90;;;;;;5033019;28;20030;-68
2021/09/15 07:49:29;;;;;;;34.13;20.80;;;23.00;94.40;;;;;;5033033;28;20028;-67
2021/09/15 07:51:55;;;;;;;30.48;18.70;;;;;;;;;;5033005;28;20029;-69
2021/09/15 07:54:21;;;;;;;31.90;17.38;;;;;;;;;;5015304;28;20022;-69
2021/09/15 07:56:47;;;;;;;37.92;17.83;;;23.60;99.90;;;;;;5015142;28;20143;-66
2021/09/15 07:59:13;;;;;;;33.13;18.20;;;;;;;;;;5015221;28;20112;-68
2021/09/15 08:01:39;;;;;;;30.17;18.20;;;23.60;85.20;;;;;;5032932;28;20024;-70
2021/09/15 08:04:05;;;;;;;27.45;16.73;;;23.70;85.20;;;;;;5032809;28;20033;-71
2021/09/15 08:06:31;;;;;;;27.50;17.20;;;23.90;86.60;;;;;;5032856;28;20034;-69
2021/09/15 08:08:56;;;;;;;25.23;15.90;;;24.10;85.10;;;;;;5032570;28;20037;-68
2021/09/15 08:11:23;;;;;;;28.15;15.68;;;24.30;84.50;;;;;;5032637;28;20033;-68
2021/09/15 08:13:49;;;;;;;20.70;11.55;;;24.50;81.50;;;;;;5014956;28;20040;-68
2021/09/15 08:16:17;;;;;;;36.83;18.10;;;24.70;81.10;;;;;;5014681;28;20022;-69
2021/09/15 08:18:43;;;;;;;27.35;17.08;;;24.80;81.80;;;;;;5032488;28;20068;-70
2021/09/15 08:21:08;;;;;;;36.08;17.58;;;24.90;82.00;;;;;;5032544;28;20061;-69
2021/09/15 08:23:34;;;;;;;29.95;16.10;;;25.20;81.00;;;;;;5032589;28;20033;-69
2021/09/15 08:26:00;;;;;;;29.30;15.48;;;25.30;78.90;;;;;;5032673;28;20038;-70
2021/09/15 08:28:26;;;;;;;25.02;14.27;;;25.40;79.60;;;;;;5032542;28;20087;-69
2021/09/15 08:30:52;;;;;;;22.85;14.90;;;25.60;79.40;;;;;;5032573;28;20057;-69
2021/09/15 08:33:18;;;;;;;23.80;14.18;;;25.70;77.50;;;;;;5011081;28;20057;-69
2021/09/15 08:35:44;;;;;;;27.33;12.55;;;25.90;77.80;;;;;;5012807;28;20463;-68
2021/09/15 08:38:11;;;;;;;30.60;13.60;;;;;;;;;;5012765;28;20034;-68
2021/09/15 08:40:37;;;;;;;25.75;12.48;;;26.20;75.00;;;;;;5014657;28;20474;-70
2021/09/15 08:43:03;;;;;;;20.15;12.50;;;26.40;75.30;;;;;;5016337;28;20034;-70
2021/09/15 08:45:29;;;;;;;22.85;11.38;;;26.50;74.70;;;;;;5015296;28;20034;-68
2021/09/15 08:47:56;;;;;;;23.02;11.45;;;26.90;73.70;;;;;;5016756;28;20029;-68
2021/09/15 08:50:23;;;;;;;14.20;11.32;;;26.90;74.10;;;;;;5015147;28;20179;-68
2021/09/15 08:52:50;;;;;;;17.50;10.13;;;;;;;;;;5015092;28;20119;-68
2021/09/15 08:55:15;;;;;;;14.50;10.57;;;27.20;72.70;;;;;;5016458;28;20034;-70
2021/09/15 08:57:41;;;;;;;15.10;9.32;;;27.30;71.30;;;;;;5016693;28;20036;-70
2021/09/15 09:00:09;;;;;;;16.65;9.43;;;27.50;71.30;;;;;;5016363;28;20036;-68
2021/09/15 09:02:38;;;;;;;20.50;9.63;;;27.60;71.70;;;;;;5016474;28;20128;-67
2021/09/15 09:05:05;;;;;;;19.50;9.88;;;;;;;;;;5016332;28;20034;-67
2021/09/15 09:07:33;;;;;;;24.73;9.77;;;27.90;68.00;;;;;;5016158;28;20022;-69
2021/09/15 09:10:11;;;;;;;45.10;10.02;;;28.00;69.30;;;;;;5016091;28;20022;-67
2021/09/15 09:12:39;;;;;;;19.20;7.82;;;28.20;69.50;;;;;;5016077;28;20060;-68
2021/09/15 09:15:19;;;;;;;13.95;8.38;;;28.30;69.70;;;;;;5014471;28;20030;-68
2021/09/15 09:17:47;;;;;;;12.35;7.70;;;28.40;67.90;;;;;;5015962;28;20033;-69
2021/09/15 09:20:20;;;;;;;19.00;8.43;;;28.60;66.00;;;;;;5015951;28;20033;-67
2021/09/15 09:23:06;;;;;;;17.35;7.95;;;28.70;65.80;;;;;;5015831;28;20486;-70
2021/09/15 09:25:44;;;;;;;8.95;7.65;;;28.90;65.80;;;;;;5020291;28;20026;-68
2021/09/15 09:28:21;;;;;;;19.00;7.95;;;29.00;66.20;;;;;;5034029;28;20493;-69
2021/09/15 09:30:48;;;;;;;11.43;7.35;;;;;;;;;;5034152;28;20039;-68
2021/09/15 09:33:14;;;;;;;13.02;7.07;;;;;;;;;;5049948;28;20103;-69
2021/09/15 09:35:46;;;;;;;14.52;7.00;;;;;;;;;;5055093;28;20017;-67
2021/09/15 09:38:23;;;;;;;11.70;6.57;;;29.30;65.60;;;;;;5036638;28;20025;-69
2021/09/15 09:40:57;;;;;;;18.10;6.95;;;;;;;;;;5036372;28;20033;-67
2021/09/15 09:43:23;;;;;;;13.07;6.55;;;;;;;;;;5053714;28;20029;-65
2021/09/15 09:45:49;;;;;;;10.70;6.82;;;30.10;63.00;;;;;;5055035;28;20021;-66
2021/09/15 09:48:54;;;;;;;10.57;6.68;;;30.10;62.70;;;;;;5054509;28;20482;-68
2021/09/15 09:51:41;;;;;;;15.65;6.10;;;30.10;64.00;;;;;;4954082;28;20050;-68
2021/09/15 09:54:11;;;;;;;16.88;6.63;;;;;;;;;;4954313;29;20051;-69
2021/09/15 09:56:39;;;;;;;11.60;6.60;;;30.40;61.00;;;;;;4954272;29;20028;-69
2021/09/15 09:59:06;;;;;;;10.60;6.75;;;30.60;62.70;;;;;;4954323;29;20031;-67
2021/09/15 10:01:45;;;;;;;11.68;6.85;;;;;;;;;;4951528;29;20134;-68
2021/09/15 10:04:12;;;;;;;17.33;7.18;;;;;;;;;;4952453;29;20455;-71
2021/09/15 10:06:38;;;;;;;11.95;6.20;;;;;;;;;;4953752;29;20044;-72
2021/09/15 10:09:05;;;;;;;10.70;5.93;;;;;;;;;;4937865;29;20020;-69
2021/09/15 10:11:31;;;;;;;18.23;6.60;;;;;;;;;;4937914;29;20031;-69
2021/09/15 10:14:23;;;;;;;10.38;6.82;;;;;;;;;;4953108;29;20093;-69
2021/09/15 10:17:01;;;;;;;13.57;7.25;;;;;;;;;;4937776;29;20027;-70
2021/09/15 10:19:32;;;;;;;12.30;6.00;;;;;;;;;;4954027;29;20066;-70
2021/09/15 10:22:00;;;;;;;11.15;6.72;;;;;;;;;;4954050;29;20027;-71
2021/09/15 10:25:02;;;;;;;13.23;6.78;;;;;;;;;;4953362;28;20507;-70
2021/09/15 10:27:29;;;;;;;12.07;6.90;;;;;;;;;;4931431;29;20163;-69
2021/09/15 10:30:13;;;;;;;11.95;6.63;;;32.60;58.00;;;;;;4953820;29;20039;-71
2021/09/15 10:32:57;;;;;;;11.98;5.70;;;34.90;61.70;;;;;;4953637;29;20058;-70
2021/09/15 10:35:50;;;;;;;9.57;5.60;;;35.40;53.70;;;;;;4953702;29;20043;-69
2021/09/15 10:38:16;;;;;;;11.32;6.35;;;;;;;;;;4954104;29;20035;-69
2021/09/15 10:40:44;;;;;;;8.75;5.72;;;36.10;53.40;;;;;;4953671;29;20042;-69
2021/09/15 10:43:41;;;;;;;12.20;6.15;;;36.50;51.70;;;;;;4953485;29;20047;-68
2021/09/15 10:46:18;;;;;;;10.93;5.97;;;37.10;50.40;;;;;;4953574;29;20035;-71
2021/09/15 10:48:45;;;;;;;6.90;5.53;;;37.70;49.50;;;;;;4953378;29;20511;-69
2021/09/15 10:51:19;;;;;;;7.70;5.45;;;37.50;48.30;;;;;;4937143;29;20032;-70
2021/09/15 10:53:45;;;;;;;8.38;5.40;;;37.80;48.10;;;;;;4953456;29;20471;-69
2021/09/15 10:56:34;;;;;;;13.13;6.57;;;38.80;47.60;;;;;;4952847;29;20027;-69
2021/09/15 10:59:00;;;;;;;14.55;5.50;;;39.50;46.10;;;;;;4953182;29;20058;-69
2021/09/15 11:01:39;;;;;;;9.27;5.60;;;40.00;46.10;;;;;;5003609;28;20140;-69
2021/09/15 11:04:05;;;;;;;13.27;5.53;;;40.40;45.30;;;;;;5052711;28;20032;-70
2021/09/15 11:06:35;;;;;;;6.32;5.10;;;;;;;;;;5053511;28;20036;-70
2021/09/15 11:09:01;;;;;;;5.50;5.00;;;40.30;44.90;;;;;;5053791;28;20108;-70
2021/09/15 11:11:27;;;;;;;9.90;5.60;;;41.20;43.90;;;;;;5033886;28;20159;-72
2021/09/15 11:13:57;;;;;;;8.27;5.75;;;;;;;;;;5052583;28;20436;-71
2021/09/15 11:16:37;;;;;;;11.33;5.00;;;;;;;;;;5035327;28;20021;-70
2021/09/15 11:19:11;;;;;;;8.35;5.15;;;;;;;;;;5053207;28;20341;-69
2021/09/15 11:21:53;;;;;;;7.75;5.07;;;42.80;42.20;;;;;;5035049;28;20373;-69
2021/09/15 11:24:26;;;;;;;6.00;5.07;;;42.60;41.70;;;;;;5052986;28;20024;-70
2021/09/15 11:27:07;;;;;;;9.63;5.20;;;42.50;41.20;;;;;;5053065;28;20094;-69
2021/09/15 11:29:42;;;;;;;13.23;6.15;;;42.60;40.90;;;;;;5053193;28;20021;-70
2021/09/15 11:32:10;;;;;;;13.15;5.25;;;;;;;;;;5052894;28;20048;-70
2021/09/15 11:34:44;;;;;;;7.13;5.65;;;42.80;40.40;;;;;;5052687;28;20421;-70
2021/09/15 11:37:24;;;;;;;10.07;5.75;;;43.80;39.90;;;;;;5053241;28;20154;-70
2021/09/15 11:40:00;;;;;;;5.07;4.57;;;;;;;;;;5053074;28;20459;-69
2021/09/15 11:42:30;;;;;;;5.90;4.57;;;43.90;40.80;;;;;;5052921;28;20021;-71
2021/09/15 11:44:57;;;;;;;8.23;4.75;;;;;;;;;;5053081;28;20029;-69
2021/09/15 11:47:27;;;;;;;5.28;4.30;;;;;;;;;;5035097;28;20461;-69
2021/09/15 11:49:54;;;;;;;11.32;4.60;;;44.10;39.80;;;;;;5053006;28;20051;-69
2021/09/15 11:52:21;;;;;;;22.38;4.95;;;44.00;38.50;;;;;;5052672;28;20025;-69
2021/09/15 11:54:51;;;;;;;11.30;5.07;;;44.00;39.10;;;;;;5052753;28;20025;-70
2021/09/15 11:57:18;;;;;;;6.78;4.72;;;44.30;39.40;;;;;;5052948;28;20115;-70
2021/09/15 11:59:44;;;;;;;7.70;4.10;;;44.50;39.90;;;;;;5052677;28;20029;-69
2021/09/15 12:02:11;;;;;;;7.90;4.15;;;;;;;;;;5052911;28;20025;-70
2021/09/15 12:04:40;;;;;;;8.15;4.97;;;;;;;;;;5052725;28;20029;-70
2021/09/15 12:07:07;;;;;;;7.63;4.35;;;;;;;;;;5052848;28;20033;-70
2021/09/15 12:09:35;;;;;;;9.25;4.88;;;;;;;;;;5052823;28;20054;-68
2021/09/15 12:12:06;;;;;;;7.78;4.28;;;;;;;;;;5034903;28;20030;-70
2021/09/15 12:14:35;;;;;;;;;;;44.80;38.00;;;;;;5037267;28;20024;-69
2021/09/15 12:17:04;;;;;;;6.70;4.57;;;45.80;37.00;;;;;;5056887;28;19908;-69
2021/09/15 12:19:30;;;;;;;5.88;4.22;;;46.30;36.50;;;;;;5056237;28;20078;-68
2021/09/15 12:21:56;;;;;;;7.53;4.45;;;46.10;37.60;;;;;;5056536;28;20032;-69
2021/09/15 12:24:23;;;;;;;5.20;4.55;;;46.50;36.30;;;;;;5038514;28;20470;-69
2021/09/15 12:26:49;;;;;;;9.13;4.78;;;46.50;37.10;;;;;;5056602;28;20078;-68
2021/09/15 12:29:23;;;;;;;6.72;4.45;;;46.50;36.80;;;;;;5056451;28;20104;-68
2021/09/15 12:31:58;;;;;;;10.60;4.57;;;46.50;37.30;;;;;;5038179;28;20104;-69
2021/09/15 12:34:43;;;;;;;7.90;4.47;;;46.50;35.90;;;;;;5056411;28;20118;-69
2021/09/15 12:37:14;;;;;;;6.70;4.80;;;46.60;36.20;;;;;;5056426;28;20025;-68
2021/09/15 12:39:50;;;;;;;5.75;4.53;;;46.40;35.00;;;;;;5038409;28;20071;-70
2021/09/15 12:42:25;;;;;;;8.25;4.32;;;46.50;36.00;;;;;;5056401;28;20021;-68
2021/09/15 12:45:06;;;;;;;4.28;3.88;;;46.80;36.40;;;;;;5055868;28;20048;-70
2021/09/15 12:47:37;;;;;;;5.03;4.05;;;47.40;35.10;;;;;;5056275;28;20051;-70
2021/09/15 12:50:17;;;;;;;8.27;5.03;;;47.30;35.90;;;;;;5056286;28;20028;-71
2021/09/15 12:52:44;;;;;;;14.53;4.43;;;47.70;35.40;;;;;;5056251;28;20071;-70
2021/09/15 12:55:22;;;;;;;5.28;4.45;;;47.80;34.80;;;;;;5049794;28;20370;-71
2021/09/15 12:58:03;;;;;;;9.40;3.95;;;47.80;35.20;;;;;;5055347;28;20473;-71
2021/09/15 13:00:47;;;;;;;6.03;3.72;;;48.30;35.30;;;;;;5055605;28;20053;-69